Tiempo atmosférico en la estación meteorológica de Ceuta, Ceuta (87 m.)



Fecha
DESCASC
Temp. máxima en grados centígrados (hora)
DESCASC
Temp. mínima en grados centígrados (hora)
DESCASC
Temp. media en grados centígrados
DESCASC
Racha de viento máxima en m/sg (hora)
DESCASC
Velocidad máxima media en intervalos de 10 minutos(hora)
DESCASC
Precipitaciones diarias en mm
DESCASC
Precipitaciones de 00:00 a 06:00 en mm
DESCASC
Precipitaciones de 06:00 a 12:00 en mm
DESCASC
Precipitaciones de 12:00 a 18:00 en mm
DESCASC
Precipitaciones de 18:00 a 24:00 en mm
DESCASC
13-10-2019 20.4 (16:50) 18.8 (10:00) 19.6 6.11 (17:40) 3.89 (17:30) 0 0 0 0 0
12-10-2019 23.4 (16:20) 19.9 (03:10) 21.6 5.83 (14:00) 3.61 (11:00) 0 0 0 0 0
11-10-2019 23.2 (16:00) 20.2 (05:10) 21.7 8.06 (12:50) 5 (11:00) 0 0 0 0 0
10-10-2019 -- (--) -- (--) -- -- (--) -- (--) -- 0 -- 0 0
09-10-2019 24.3 (12:00) 19.1 (00:00) 21.7 6.67 (12:40) 4.44 (12:40) 0 0 0 0 0
08-10-2019 24.1 (17:00) 19 (00:00) 21.6 9.44 (13:20) 5.56 (17:20) 0 0 0 0 0
07-10-2019 29 (15:20) 19 (00:00) 24 3.89 (11:50) 2.5 (11:50) 0 0 0 0 0
06-10-2019 29.9 (16:50) 19.1 (00:00) 24.5 5 (04:00) 3.33 (14:20) 0 0 0 0 0
05-10-2019 28.2 (16:20) 18.7 (00:00) 23.5 7.78 (17:40) 4.17 (14:50) 0 0 0 0 0
04-10-2019 27.7 (12:40) 20.1 (00:00) 23.9 12.22 (03:40) 6.39 (03:20) 0 0 0 0 0
03-10-2019 28.1 (14:10) 18.2 (00:00) 23.2 11.11 (11:50) 5 (11:50) 0 0 0 0 0
02-10-2019 24.9 (17:40) 20 (00:00) 22.4 12.78 (16:40) 4.72 (00:10) 0 0 0 0 0
01-10-2019 28.5 (12:30) 19.8 (00:00) 24.1 15.28 (17:10) 6.67 (22:50) 0 0 0 0 0
30-09-2019 26.8 (17:20) 16.2 (00:00) 21.5 5 (18:20) 3.89 (17:40) 0 0 0 0 0
29-09-2019 24.7 (14:50) 18.9 (00:00) 21.8 5.28 (09:40) 3.89 (18:40) 0 0 0 0 0
28-09-2019 21.6 (15:20) 17.6 (00:00) 19.6 6.11 (22:20) 3.89 (19:10) 0 0 0 0 0
27-09-2019 24.1 (16:00) 18.6 (00:00) 21.4 5.28 (18:00) 4.17 (18:00) 0 0 0 0 0
26-09-2019 24.5 (00:00) 19.1 (00:00) 21.8 6.67 (10:30) 3.89 (14:00) 0 0 0 0 0
25-09-2019 30.2 (15:20) 22.9 (00:00) 26.6 12.78 (01:20) 6.67 (01:40) 0 0 0 0 0
24-09-2019 27.9 (14:50) 18.6 (00:00) 23.3 10.83 (23:10) 5.83 (23:30) 0 0 0 0 0
23-09-2019 29.4 (16:30) 19.3 (00:00) 24.3 10 (02:20) 6.11 (02:20) 0 0 0 0 0
22-09-2019 25.4 (16:30) 20.4 (00:00) 22.9 9.17 (15:20) 4.17 (23:50) 0 0 0 0 0
21-09-2019 25.4 (15:00) 19.4 (00:00) 22.4 5.83 (20:10) 2.5 (13:10) 0 0 0 0 0
20-09-2019 25.3 (16:40) 19.5 (00:00) 22.4 5.56 (20:00) 2.78 (11:40) 0 0 0 0 0
19-09-2019 26.6 (15:40) 18.5 (00:00) 22.6 5.56 (17:50) 3.89 (17:50) 0 0 0 0 0
18-09-2019 28.8 (17:10) 20.4 (00:00) 24.6 6.11 (15:40) 3.61 (13:30) 0 0 0 0 0
17-09-2019 25.3 (16:40) 20.2 (00:00) 22.8 6.39 (17:10) 3.33 (04:10) 0 0 0 0 0
16-09-2019 24.2 (17:20) 17.7 (00:00) 21 5.83 (15:40) 3.89 (16:30) 0 0 0 0 0
15-09-2019 26.6 (14:10) 19.9 (00:00) 23.3 7.22 (15:10) 4.17 (15:00) 0 0 0 0 0

Gráficas

Temp. máximas Temp. mínimas Temp. medias Precipitaciones Rachas de viento máximas Velocidades máximas media en intervalos de 10 minutos

Datos horarios

Fecha y hora oficial Temperatura (ºC) Velocidad del viento (km/h) Dirección del viento Racha (km/h) Dirección de racha Precipitación (mm) Presión (hPa) Tendencia (hPa) Humedad (%)
2019-10-14 23:00:00 19.3 13 Oeste 34 Oeste 0 1010 0.8 68
2019-10-14 22:00:00 19.2 13 Oeste 33 Oeste 0 1009.8 1.3 75
2019-10-14 21:00:00 19.3 13 Oeste 37 Sudoeste 0 1009.6 1.5 74
2019-10-14 20:00:00 19.5 11 Noroeste 40 Noroeste 0 1009.2 1.4 73
2019-10-14 19:00:00 19.8 15 Noroeste 43 Oeste 0 1008.5 0.9 72
2019-10-14 18:00:00 21.5 12 Oeste 35 Noroeste 0 1008.1 0.5 66
2019-10-14 17:00:00 22.1 12 Oeste 36 Oeste 0 1007.8 -0.1 69
2019-10-14 16:00:00 22.1 15 Oeste 41 Oeste 0 1007.6 -0.4 71
2019-10-14 15:00:00 20.9 13 Oeste 32 Noroeste 0.6 1007.6 -0.1 79
2019-10-14 14:00:00 20.3 13 Oeste 30 Sudoeste 0.6 1007.9 0.6 84
2019-10-14 13:00:00 20.5 4 Sudoeste 21 Sudoeste 0.4 1008 1.6 86
2019-10-14 12:00:00 19.4 7 Oeste 31 Oeste 2.6 1007.7 1.9 88
2019-10-14 11:00:00 21.1 7 Oeste 30 Oeste 0 1007.3 1.9 78
2019-10-14 10:00:00 22.8 13 Sur 26 Sur 0 1006.4 1.3 68
2019-10-14 09:00:00 20.7 10 Sudoeste 29 Sudoeste 0 1005.8 0.7 76
2019-10-14 08:00:00 20.5 8 Sudoeste 18 Sur 0 1005.4 0.5 76
2019-10-14 07:00:00 21.1 10 Sudoeste 26 Oeste 0 1005.1 0.2 80
2019-10-14 06:00:00 21.3 11 Sudoeste 28 Sudoeste 0 1005.1 0.1 78
2019-10-14 05:00:00 20.5 8 Sudoeste 23 Sudoeste 0.2 1004.9 0.1 86
2019-10-14 04:00:00 19.9 3 Oeste 10 Sur 0 1004.9 0 95
2019-10-14 03:00:00 20.1 7 Sudoeste 12 Sur 0 1005 -0.1 94
2019-10-14 02:00:00 20.2 4 Sur 11 Sur 0 1004.8 -0.2 93
2019-10-14 01:00:00 20.2 8 Sur 14 Sur 0 1004.9 0.1 93
2019-10-14 00:00:00 20.1 10 Sur 16 Sur 0 1005.1 0.9 93
2019-10-13 23:00:00 20 9 Sur 15 Sur 0 1005 0.9 94
2019-10-13 22:00:00 19.9 6 Sur 13 Sudeste 0 1004.8 0.5 94
2019-10-13 21:00:00 19.9 9 Sur 18 Sur 0 1004.2 -0.3 94
2019-10-13 20:00:00 19.9 10 Sur 22 Sur 0 1004.1 -0.6 93
2019-10-13 19:00:00 19.9 12 Sur 18 Sur 0 1004.3 -0.8 94
2019-10-13 18:00:00 20 12 Sur 22 Sur 0 1004.5 -1.3 92
2019-10-13 17:00:00 20.4 12 Sur 20 Sur 0 1004.7 -1.9 92
2019-10-13 16:00:00 20.1 9 Sudeste 15 Sudeste 0 1005.1 -2 94
2019-10-13 15:00:00 19.8 7 Sur 15 Sur 0 1005.8 -1.4 96
2019-10-13 14:00:00 19.7 8 Sur 14 Sudeste 0 1006.6 -0.3 97
2019-10-13 13:00:00 19.7 7 Sur 12 Sur 0 1007.1 0.7 97
2019-10-13 12:00:00 19.5 5 Sur 12 Sur 0 1007.2 1.2 98
2019-10-13 11:00:00 19.2 6 Sur 13 Sur 0 1006.9 1.1 99
2019-10-13 10:00:00 18.8 10 Sur 14 Sur 0 1006.4 0.8 99
2019-10-13 09:00:00 19.1 7 Sur 11 Sur 0 1006 0.5 98
2019-10-13 08:00:00 19 8 Sur 12 Sur 0 1005.8 0.2 98
2019-10-13 07:00:00 19 7 Sur 12 Sudeste 0 1005.6 -0.3 98
2019-10-13 06:00:00 19.1 6 Sudeste 10 Sur 0 1005.5 -0.9 98
2019-10-13 05:00:00 19.2 5 Sur 8 Sur 0 1005.6 -1 98
2019-10-13 04:00:00 19.3 4 Sur 7 Sur 0 1005.9 -0.8 96
2019-10-13 03:00:00 19.6 4 Sur 9 Sudoeste 0 1006.4 -0.4 96
2019-10-13 02:00:00 19.4 6 Sur 10 Sur 0 1006.6 -0.2 93
2019-10-13 01:00:00 19.7 8 Sur 11 Sur 0 1006.7 0.2 92
2019-10-13 00:00:00 19.9 8 Sur 12 Sudoeste 0 1006.8 0.6 92
2019-10-12 23:00:00 20.1 6 Sudoeste 9 Sudoeste 0 1006.8 0.8 92
2019-10-12 22:00:00 20.3 5 Sudoeste 12 Sur 0 1006.5 0.6 91
2019-10-12 21:00:00 20.8 7 Sur 15 Sudoeste 0 1006.2 0.4 89
2019-10-12 20:00:00 21.2 6 Sur 14 Sur 0 1006 0.1 87
2019-10-12 19:00:00 21.6 6 Sur 13 Sur 0 1005.9 -0.2 86
2019-10-12 18:00:00 22.4 9 Sudeste 17 Sudeste 0 1005.8 -0.8 81
2019-10-12 17:00:00 23.1 10 Sudeste 19 Sur 0 1005.9 -1.3 79
2019-10-12 16:00:00 23.1 10 Sudeste 18 Sudeste 0 1006.1 -1.5 80
2019-10-12 15:00:00 22.4 9 Sudeste 18 Este 0 1006.6 -1.1 86
2019-10-12 14:00:00 22.6 13 Este 21 Este 0 1007.2 -0.1 86
2019-10-12 13:00:00 21.8 9 Sudeste 18 Sudeste 0 1007.6 1 91
2019-10-12 12:00:00 21 8 Sur 17 Este 0 1007.7 1.5 95
2019-10-12 11:00:00 21.3 13 Sudeste 19 Sudeste 0 1007.3 1.3 95
2019-10-12 10:00:00 20.7 12 Este 19 Sudeste 0 1006.6 0.6 95
2019-10-12 09:00:00 20.6 7 Este 17 Este 0 1006.2 0.1 95
2019-10-12 08:00:00 20.4 11 Este 18 Este 0 1006 -0.1 95
2019-10-12 07:00:00 20.1 9 Este 17 Este 0 1006 -0.6 96
2019-10-12 06:00:00 20.1 10 Este 18 Este 0 1006.1 -1.3 96
2019-10-12 05:00:00 20.4 10 Este 19 Este 0 1006.1 -1.4 96
2019-10-12 04:00:00 20.2 5 Este 12 Este 0 1006.6 -1.4 97
2019-10-12 03:00:00 20.3 4 Este 16 Este 0 1007.4 -1.1 98
2019-10-12 02:00:00 20.2 9 Este 16 Sudeste 0 1007.5 -0.8 97
2019-10-12 01:00:00 20.1 6 Sudeste 20 Sudeste 0 1008 0.2 98
2019-10-12 00:00:00 20.4 10 Sur 17 Sur 0 1008.5 0.7 97
2019-10-11 23:00:00 20.5 11 Sudeste 17 Sudeste 0 1008.3 0.9 96
2019-10-11 22:00:00 20.4 8 Sur 14 Sur 0 1007.8 0.1 96
2019-10-11 21:00:00 20.6 8 Sudeste 19 Sudeste 0 1007.8 0 94
2019-10-11 20:00:00 21 12 Sudeste 22 Sudeste 0 1007.4 -0.9 92
2019-10-11 19:00:00 21.3 11 Este 25 Sudeste 0 1007.7 -0.9 90
2019-10-11 18:00:00 22.1 12 Este 23 Este 0 1007.8 -1.2 87
2019-10-11 17:00:00 21.7 8 Nordeste 27 Este 0 1008.3 -1.5 86
2019-10-11 16:00:00 23 15 Este 26 Este 0 1008.6 -1.5 83
2019-10-11 15:00:00 22.5 15 Este 24 Este 0 1009 -1.4 85
2019-10-11 14:00:00 22.3 14 Este 23 Este 0 1009.8 -0.4 87
2019-10-11 13:00:00 22.3 15 Este 29 Sudeste 0 1010.1 0.3 86
2019-10-11 12:00:00 22.2 14 Este 27 Este 0 1010.4 1.4 86
2019-10-11 11:00:00 22.1 18 Este 27 Este 0 1010.2 1.4 86
2019-10-11 10:00:00 21.4 13 Este 27 Este 0 1009.8 1 90
2019-10-11 09:00:00 20.6 8 Nordeste 24 Este 0 1009 0.5 93
2019-10-11 08:00:00 20.2 13 Nordeste 22 Nordeste 0 1008.8 0.3 95
2019-10-11 07:00:00 20.2 11 Nordeste 21 Este 0 1008.8 0 95
2019-10-11 06:00:00 20.2 11 Nordeste 19 Este 0 1008.5 -0.6 95
2019-10-11 05:00:00 20.3 12 Este 22 Nordeste 0 1008.5 -0.6 95
2019-10-11 04:00:00 20.5 10 Nordeste 21 Este 0 1008.8 -0.6 95
2019-10-11 03:00:00 20.8 11 Este 21 Este 0 1009.1 -0.1 93
2019-10-11 02:00:00 21 13 Este 22 Este 0 1009.1 0 92
2019-10-11 01:00:00 20.8 12 Este 23 Este 0 1009.4 0.6 92
2019-10-11 00:00:00 20.9 12 Este 21 Este 0 1009.2 0.9 92
2019-10-10 23:00:00 21 10 Este 21 Este 0 1009.1 1.3 93
2019-10-10 22:00:00 20.6 11 Este 21 Este 0 1008.8 1 94
2019-10-10 21:00:00 20.7 14 Este 25 Este 0 1008.3 0.5 93
2019-10-10 20:00:00 21 14 Este 28 Este 0 1007.8 -0.1 91
2019-10-10 19:00:00 21.6 15 Este 28 Sudeste 0 1007.8 -0.3 88
2019-10-10 18:00:00 22.5 20 Este 33 Este 0 1007.8 -0.7 84
2019-10-10 17:00:00 22.2 19 Este 34 Este 0 1007.9 -1.2 87
2019-10-10 16:00:00 23.5 18 Este 37 Este 0 1008.1 -1.5 80
2019-10-10 15:00:00 23.4 19 Este 42 Este 0 1008.5 -1 82
2019-10-10 14:00:00 24.1 23 Este 34 Este 0 1009.1 -0.4 78
2019-10-10 13:00:00 23.9 19 Este 32 Este 0 1009.6 -- 78
2019-10-10 12:00:00 22.1 18 Este 32 Este 0 1009.5 -- 88
2019-10-10 11:00:00 21 16 Este 30 Este 0 1009.5 -- 93
2019-10-10 10:00:00 -- -- -- -- -- -- -- -- --
2019-10-10 09:00:00 -- -- -- -- -- -- -- -- --
2019-10-10 08:00:00 19.8 11 Sudeste 20 Este 0 -- -- 98
2019-10-10 07:00:00 19.6 10 Este 18 Sudeste 0 -- -- 98
2019-10-10 06:00:00 19.6 7 Sur 13 Sur 0 -- -- 97
2019-10-10 05:00:00 19.6 6 Sudeste 12 Sur 0 -- -- 96
2019-10-10 04:00:00 19.6 7 Sur 17 Sudeste 0 -- -- 95
2019-10-10 03:00:00 19.5 9 Sudeste 15 Sudeste 0 -- -- 97
2019-10-10 02:00:00 19.4 6 Este 13 Este 0 -- -- 97
2019-10-10 01:00:00 19.8 8 Sudeste 13 Sudeste 0 -- -- 93
2019-10-10 00:00:00 19.7 7 Sudeste 17 Sudeste 0 -- -- 95
2019-10-09 23:00:00 19.9 7 Sudeste 12 Sur 0 -- -- 96
2019-10-09 22:00:00 20.3 5 Sudeste 17 Sudoeste 0 -- -- 93
2019-10-09 21:00:00 20.3 11 Sur 19 Sur 0 -- -- 91
2019-10-09 20:00:00 20.7 7 Sudoeste 19 Sur 0 -- -- 89
2019-10-09 19:00:00 21 10 Sur -- -- -- -- -- 88
2019-10-09 18:00:00 21.2 13 Sur 19 Sur 0 -- -- 87
2019-10-09 17:00:00 21.4 9 Sudeste 17 Sudeste 0 -- -- 89
2019-10-09 16:00:00 21.8 9 Sudeste 17 Sudeste 0 -- -- 86
2019-10-09 15:00:00 22.2 12 Sudeste 20 Sudeste 0 -- -- 85
2019-10-09 14:00:00 22.8 8 Sudeste 22 Este 0 -- -- 82
2019-10-09 13:00:00 23.8 14 Este 24 Sudeste 0 -- -- 76
2019-10-09 12:00:00 23.8 12 Este 19 Este 0 1007.6 1.1 77
2019-10-09 11:00:00 22.1 12 Este -- -- -- 1007.4 1.2 84
2019-10-09 10:00:00 20.2 8 Sudeste 18 Sudeste 0 1007.1 1 94
2019-10-09 09:00:00 19.5 6 Sur 18 Sudeste 0 1006.5 0.6 95
2019-10-09 08:00:00 19.6 7 Sur 15 Sur 0 1006.2 0.3 95
2019-10-09 07:00:00 19.7 9 Sudeste 21 Este 0 1006.1 -0.2 95
2019-10-09 06:00:00 19.5 7 Sudeste 15 Este 0 1005.9 -0.9 94
2019-10-09 05:00:00 19.5 10 Este 18 Este 0 1005.9 -1 92
2019-10-09 04:00:00 19.5 9 Este 16 Este 0 1006.3 -1 90
2019-10-09 03:00:00 19.2 3 Nordeste 12 Este 0 1006.8 -0.7 93
2019-10-09 02:00:00 19.6 6 Este 13 Este 0 1006.9 -0.7 94
2019-10-09 01:00:00 19.8 8 Este 16 Este 0 1007.3 -0.1 93
2019-10-09 00:00:00 20.1 8 Este 15 Este 0 1007.5 0.2 93
2019-10-08 23:00:00 20.2 8 Este 13 Este 0 1007.6 0.4 93
2019-10-08 22:00:00 20.3 6 Este 14 Este 0 1007.4 0.3 93
2019-10-08 21:00:00 20.4 8 Este 14 Este 0 1007.3 0 93
2019-10-08 20:00:00 20.8 9 Sudeste 18 Sudeste 0 1007.2 -0.3 92
2019-10-08 19:00:00 21.4 13 Sudeste 24 Este 0 1007.1 -0.7 90
2019-10-08 18:00:00 22.6 17 Este 30 Sudeste 0 1007.3 -0.9 85
2019-10-08 17:00:00 24.1 15 Este 25 Sudeste 0 1007.5 -1.4 78
2019-10-08 16:00:00 22.5 15 Nordeste 26 Este 0 1007.8 -1.6 86
2019-10-08 15:00:00 21.9 18 Nordeste 30 Este 0 1008.2 -1.2 89
2019-10-08 14:00:00 22.9 17 Nordeste 34 Este 0 1008.9 -0.5 86
2019-10-08 13:00:00 23.1 15 Este 30 Este 0 1009.4 0.6 87
2019-10-08 12:00:00 22 17 Este 25 Este 0 1009.4 1.2 90
2019-10-08 11:00:00 21.1 12 Este 23 Este 0 1009.4 1.9 93
2019-10-08 10:00:00 20.7 12 Este 25 Este 0 1008.8 1.5 95
2019-10-08 09:00:00 20.5 8 Este 22 Este 0 1008.2 1.4 95
2019-10-08 08:00:00 20.3 11 Nordeste 17 Nordeste 0 1007.5 0.7 95
2019-10-08 07:00:00 20.2 6 Este 10 Este 0 1007.3 0.5 93
2019-10-08 06:00:00 19.2 6 Oeste 8 Nordeste 0 1006.8 0.6 89
2019-10-08 05:00:00 19.1 3 Norte 7 Norte 0 1006.8 1 91
2019-10-08 04:00:00 19.6 3 Norte 8 Norte 0 1006.8 1 89
2019-10-08 03:00:00 19.8 5 Norte 10 Norte 0 1006.2 0.1 78
2019-10-08 02:00:00 20.4 4 Norte 10 Sudoeste 0 1005.8 -0.2 70
2019-10-08 01:00:00 22.8 6 Sudoeste 9 Sudoeste 0 1005.8 0.2 44
2019-10-08 00:00:00 21.9 8 Sur 11 Sur 0 1006.1 0.9 59
2019-10-07 23:00:00 21.9 6 Sudoeste 10 Sudoeste 0 1006 0.9 61
2019-10-07 22:00:00 22.1 4 Sur 9 Sur 0 1005.6 0.5 65
2019-10-07 21:00:00 22.5 2 Sur 10 Sur 0 1005.2 0.2 62
2019-10-07 20:00:00 23.6 6 Sur 10 Sur 0 1005.1 -0.1 62
2019-10-07 19:00:00 25.2 8 Sur 12 Sur 0 1005.1 -0.2 53
2019-10-07 18:00:00 27.9 3 Sudeste 11 Sur 0 1005 -0.6 46
2019-10-07 17:00:00 27.8 4 Sudeste 13 Sur 0 1005.2 -1 44
2019-10-07 16:00:00 27.5 7 Sur 13 Sur 0 1005.3 -1.4 47
2019-10-07 15:00:00 28.2 6 Sudeste 13 Sur 0 1005.6 -1.2 43
2019-10-07 14:00:00 27 7 Este 10 Nordeste 0 1006.2 -0.3 48
2019-10-07 13:00:00 26.3 6 Sudeste 14 Sur 0 1006.7 0.3 50
2019-10-07 12:00:00 26.5 7 Sudeste 14 Sur 0 1006.8 0.8 47
2019-10-07 11:00:00 26.1 5 Este 9 Sur 0 1006.5 0.8 46
2019-10-07 10:00:00 24.5 6 Sur 9 Sur 0 1006.4 0.8 45
2019-10-07 09:00:00 22.2 2 Noroeste 9 Sur 0 1006 0.2 47
2019-10-07 08:00:00 19.5 2 Nordeste 7 Oeste 0 1005.7 -0.1 58
2019-10-07 07:00:00 19.2 3 Noroeste 7 Noroeste 0 1005.6 -0.6 63
2019-10-07 06:00:00 19.7 3 Nordeste 10 Sur 0 1005.8 -1 60
2019-10-07 05:00:00 20.5 8 Sudoeste 10 Sur 0 1005.8 -1.4 59
2019-10-07 04:00:00 21.5 3 Noroeste 6 Sur 0 1006.2 -1.3 51
2019-10-07 03:00:00 22.4 6 Sur 8 Sur 0 1006.8 -0.8 48
2019-10-07 02:00:00 22.1 3 Sur 6 Sur 0 1007.2 -0.3 49
2019-10-07 01:00:00 22.5 5 Sur 12 Oeste 0 1007.5 0.3 48
2019-10-07 00:00:00 21.7 0 Calma 9 Sudoeste 0 1007.6 0.7 54
2019-10-06 23:00:00 21.4 3 Oeste 9 Oeste 0 1007.5 0.6 53
2019-10-06 22:00:00 21.3 3 Oeste 9 Sur 0 1007.2 0.4 60
2019-10-06 21:00:00 21.4 3 Sudoeste 5 Sudoeste 0 1006.9 -0.1 70
2019-10-06 20:00:00 23 3 Norte 7 Sur 0 1006.9 -0.2 67
2019-10-06 19:00:00 25.4 4 Sur 12 Sur 0 1006.8 -0.6 60
2019-10-06 18:00:00 28.2 9 Este 12 Nordeste 0 1007 -0.8 46
2019-10-06 17:00:00 29.9 7 Sudeste 14 Este 0 1007.1 -1.3 38
2019-10-06 16:00:00 29 8 Nordeste 15 Nordeste 0 1007.4 -0.9 42
2019-10-06 15:00:00 28.6 9 Este 17 Sudeste 0 1007.8 -0.8 43
2019-10-06 14:00:00 28.7 9 Sudeste 13 Sudeste 0 1008.4 0.2 41
2019-10-06 13:00:00 27.5 11 Sudeste 15 Sur 0 1008.3 0.6 41
2019-10-06 12:00:00 28 9 Sudeste 13 Sudeste 0 1008.6 1.4 39
2019-10-06 11:00:00 27 4 Sudeste 10 Este 0 1008.2 1.3 42
2019-10-06 10:00:00 24.5 5 Este 13 Norte 0 1007.7 1.3 51
2019-10-06 09:00:00 22.9 6 Sudoeste 12 Sur 0 1007.2 0.9 51
2019-10-06 08:00:00 19.5 4 Oeste 10 Oeste 0 1006.9 1 59
2019-10-06 07:00:00 19.9 5 Noroeste 12 Oeste 0 1006.4 0 59
2019-10-06 06:00:00 20.6 8 Sudoeste 13 Oeste 0 1006.3 -0.2 57
2019-10-06 05:00:00 22.1 6 Sudoeste 14 Sudoeste 0 1005.9 -0.4 54
2019-10-06 04:00:00 21.2 8 Sur 18 Oeste 0 1006.4 0.1 58
2019-10-06 03:00:00 19.4 4 Sur 9 Noroeste 0 1006.5 0.1 66
2019-10-06 02:00:00 19.7 4 Sur 8 Sudoeste 0 1006.3 0 66
2019-10-06 01:00:00 19.9 5 Sudoeste 10 Sudoeste 0 1006.3 0.3 63
2019-10-06 00:00:00 20.2 6 Oeste 9 Oeste 0 1006.4 0.8 64
2019-10-05 23:00:00 20.6 0 Calma 8 Oeste 0 1006.3 0.9 63
2019-10-05 22:00:00 21.1 6 Sudoeste 10 Sudoeste 0 1006 0.8 65
2019-10-05 21:00:00 22.1 3 Sur 9 Sudoeste 0 1005.6 0.4 61
2019-10-05 20:00:00 23.7 2 Norte 9 Noroeste 0 1005.4 0.1 55
2019-10-05 19:00:00 26.5 4 Oeste 19 Noroeste 0 1005.2 -0.3 47
2019-10-05 18:00:00 27 10 Noroeste 28 Oeste 0 1005.2 -0.7 46
2019-10-05 17:00:00 28 6 Noroeste 17 Sudoeste 0 1005.3 -1.1 46
2019-10-05 16:00:00 27.5 8 Sudoeste 16 Sudoeste 0 1005.5 -1.1 51
2019-10-05 15:00:00 26.3 13 Noroeste 27 Noroeste 0 1005.9 -0.6 59
2019-10-05 14:00:00 27.1 13 Noroeste 27 Noroeste 0 1006.4 0.1 56
2019-10-05 13:00:00 26.8 14 Noroeste 26 Noroeste 0 1006.6 0.6 56
2019-10-05 12:00:00 26 9 Noroeste 17 Noroeste 0 1006.5 1 59
2019-10-05 11:00:00 25.2 7 Este 13 Este 0 1006.3 1.4 59
2019-10-05 10:00:00 24.8 5 Sudeste 16 Noroeste 0 1006 1.3 61
2019-10-05 09:00:00 21.9 7 Noroeste 13 Noroeste 0 1005.5 0.7 72
2019-10-05 08:00:00 19 3 Oeste 9 Noroeste 0 1004.9 0.2 78
2019-10-05 07:00:00 19 4 Sur 9 Oeste 0 1004.7 -0.3 77
2019-10-05 06:00:00 18.7 3 Noroeste 9 Oeste 0 1004.8 -0.6 77
2019-10-05 05:00:00 19.1 6 Sur 8 Sur 0 1004.7 -0.8 76
2019-10-05 04:00:00 18.9 2 Sur 7 Sur 0 1005 -0.8 72
2019-10-05 03:00:00 19.3 5 Sudoeste 8 Sur 0 1005.4 -0.7 67
2019-10-05 02:00:00 19.9 4 Oeste 6 Oeste 0 1005.5 -0.6 63
2019-10-05 01:00:00 19.8 4 Oeste 8 Sur 0 1005.8 -0.3 63
2019-10-05 00:00:00 20.2 5 Sudoeste 7 Sudoeste 0 1006.1 0.2 64
2019-10-04 23:00:00 20.2 2 Sudoeste 7 Sudoeste 0 1006.1 0.4 63
2019-10-04 22:00:00 20.7 3 Sur 5 Sur 0 1006.1 0.6 77
2019-10-04 21:00:00 21.1 3 Sur 6 Sur 0 1005.9 0.3 73
2019-10-04 20:00:00 22.6 4 Sur 8 Sur 0 1005.7 -0.2 68
2019-10-04 19:00:00 24.4 6 Sur 11 Sur 0 1005.5 -0.6 52
2019-10-04 18:00:00 25.3 6 Sur 14 Sudeste 0 1005.6 -1.1 46
2019-10-04 17:00:00 24.9 8 Sur 13 Sur 0 1005.9 -1.5 59
2019-10-04 16:00:00 26 8 Sudeste 13 Sudeste 0 1006.1 -1.5 58
2019-10-04 15:00:00 25.7 8 Sur 14 Sur 0 1006.7 -1 59
2019-10-04 14:00:00 26.5 7 Sudeste 13 Sudeste 0 1007.4 -0.3 54
2019-10-04 13:00:00 27 7 Sudeste 11 Sudeste 0 1007.6 0.2 47
2019-10-04 12:00:00 26.7 6 Sudeste 11 Sudeste 0 1007.7 0.7 46
2019-10-04 11:00:00 25.4 6 Sudeste 9 Sudeste 0 1007.7 1.1 49
2019-10-04 10:00:00 24.8 3 Sudeste 9 Sur 0 1007.4 1.2 51
2019-10-04 09:00:00 21.7 6 Sur 10 Sudoeste 0 1007 0.9 54
2019-10-04 08:00:00 21 5 Sur 10 Oeste 0 1006.6 0.4 50
2019-10-04 07:00:00 22.8 6 Sudoeste 17 Oeste 0 1006.2 -0.2 43
2019-10-04 06:00:00 25 12 Noroeste 39 Oeste 0 1006.1 -0.6 31
2019-10-04 05:00:00 24.5 9 Oeste 34 Noroeste 0 1006.2 -0.8 33
2019-10-04 04:00:00 25.3 19 Noroeste 44 Noroeste 0 1006.4 -1.3 31
2019-10-04 03:00:00 25.8 21 Noroeste 40 Noroeste 0 1006.7 -1.1 30
2019-10-04 02:00:00 25.5 15 Noroeste 32 Oeste 0 1007 -0.6 31
2019-10-04 01:00:00 25.2 7 Oeste 36 Noroeste 0 1007.7 0 32
2019-10-04 00:00:00 25.4 13 Noroeste 33 Noroeste 0 1007.8 0.4 26
2019-10-03 23:00:00 23.7 14 Noroeste 29 Noroeste 0 1007.6 0.6 30
2019-10-03 22:00:00 21.5 6 Sur 13 Noroeste 0 1007.7 0.4 51
2019-10-03 21:00:00 21.8 10 Noroeste 34 Noroeste 0 1007.4 -0.2 44
2019-10-03 20:00:00 22.7 15 Oeste 37 Oeste 0 1007 -0.9 44
2019-10-03 19:00:00 24.4 8 Oeste 23 Sudoeste 0 1007.3 -0.7 45
2019-10-03 18:00:00 26.6 9 Sudoeste 22 Noroeste 0 1007.6 -0.8 37
2019-10-03 17:00:00 27.6 4 Sur 23 Norte 0 1007.9 -0.7 35
2019-10-03 16:00:00 27.8 6 Oeste 35 Noroeste 0 1008 -1.1 37
2019-10-03 15:00:00 26.7 12 Oeste 34 Oeste 0 1008.4 -1.1 47
2019-10-03 14:00:00 28 9 Oeste 25 Oeste 0 1008.6 -0.7 37
2019-10-03 13:00:00 26.8 9 Oeste 31 Oeste 0 1009.1 0.3 43
2019-10-03 12:00:00 25.7 15 Noroeste 40 Noroeste 0 1009.5 1.2 42
2019-10-03 11:00:00 24.1 10 Noroeste 24 Oeste 0 1009.3 1.4 45
2019-10-03 10:00:00 22.6 5 Este 9 Este 0 1008.8 1.5 48
2019-10-03 09:00:00 19.8 2 Este 8 Oeste 0 1008.3 1 53
2019-10-03 08:00:00 18.3 5 Norte 7 Noroeste 0 1007.9 0.8 57
2019-10-03 07:00:00 18.7 4 Sur 9 Sudoeste 0 1007.3 0.1 58
2019-10-03 06:00:00 18.6 4 Oeste 6 Noroeste 0 1007.3 0 60
2019-10-03 05:00:00 20.6 3 Oeste 15 Oeste 0 1007.1 -0.6 50
2019-10-03 04:00:00 21.9 5 Oeste 29 Oeste 0 1007.2 -0.2 41
2019-10-03 03:00:00 21 13 Noroeste 36 Noroeste 0 1007.3 -0.3 45
2019-10-03 02:00:00 21.2 9 Oeste 31 Oeste 0 1007.7 0.2 49
2019-10-03 01:00:00 21.8 13 Oeste 39 Noroeste 0 1007.4 0.2 45
2019-10-03 00:00:00 20.4 5 Este 15 Este 0 1007.6 0.8 41
2019-10-02 23:00:00 20.9 4 Sudoeste 30 Oeste 0 1007.5 0.8 36
2019-10-02 22:00:00 21.9 11 Noroeste 30 Noroeste 0 1007.2 0.5 30
2019-10-02 21:00:00 21.9 6 Sur 20 Oeste 0 1006.8 0.4 44
2019-10-02 20:00:00 23 9 Sudoeste 26 Noroeste 0 1006.7 -0.1 42
2019-10-02 19:00:00 23.7 8 Oeste 37 Noroeste 0 1006.7 -0.4 38
2019-10-02 18:00:00 24.4 15 Oeste 38 Oeste 0 1006.4 -1 41
2019-10-02 17:00:00 24 15 Oeste 46 Noroeste 0 1006.8 -0.8 51
2019-10-02 16:00:00 23.5 15 Oeste 41 Sudoeste 0 1007.1 -0.5 60
2019-10-02 15:00:00 23.8 14 Oeste 39 Oeste 0 1007.4 -0.2 61
2019-10-02 14:00:00 23.9 13 Sudoeste 35 Sudoeste 0 1007.6 0.2 61
2019-10-02 13:00:00 24.4 12 Sudoeste 30 Oeste 0 1007.6 0 57
2019-10-02 12:00:00 24.1 13 Sudoeste 42 Oeste 0 1007.6 0.5 55
2019-10-02 11:00:00 22.7 11 Oeste 39 Sudoeste 0 1007.4 0.6 59
2019-10-02 10:00:00 21.7 11 Oeste 39 Oeste 0 1007.6 0.9 65
2019-10-02 09:00:00 20.6 12 Oeste 31 Oeste 0 1007.1 0.7 72
2019-10-02 08:00:00 20.1 12 Sudoeste 36 Sudoeste 0 1006.8 0.2 75
2019-10-02 07:00:00 20.6 10 Sudoeste 21 Sur 0 1006.7 -0.2 70
2019-10-02 06:00:00 20.9 9 Sudoeste 22 Oeste 0 1006.4 -0.8 74
2019-10-02 05:00:00 21.2 12 Sudoeste 24 Sudoeste 0 1006.6 -0.4 76
2019-10-02 04:00:00 21.8 10 Sudoeste 27 Noroeste 0 1006.9 -0.6 73
2019-10-02 03:00:00 22.1 8 Oeste 26 Oeste 0 1007.2 0.1 72
2019-10-02 02:00:00 22.8 14 Oeste 32 Oeste 0 1007 0.2 65
2019-10-02 01:00:00 23.4 11 Oeste 37 Noroeste 0 1007.5 1.3 64
2019-10-02 00:00:00 22.9 20 Oeste 45 Noroeste 0 1007.1 1.2 65
2019-10-01 23:00:00 22.8 21 Oeste 47 Noroeste 0 1006.8 1.2 64
2019-10-01 22:00:00 22.9 21 Oeste 45 Noroeste 0 1006.2 1.1 62
2019-10-01 21:00:00 23.3 18 Oeste 46 Oeste 0 1005.9 1.3 59
2019-10-01 20:00:00 23.4 11 Oeste 43 Noroeste 0 1005.6 1.1 52
2019-10-01 19:00:00 24.8 13 Oeste 41 Oeste 0 1005.1 0.1 44
2019-10-01 18:00:00 26.3 20 Oeste 55 Noroeste 0 1004.6 -0.8 34
2019-10-01 17:00:00 26.6 21 Oeste 46 Noroeste 0 1004.5 -1.4 36
2019-10-01 16:00:00 27.2 15 Oeste 50 Oeste 0 1005 -0.9 31
2019-10-01 15:00:00 27.5 15 Oeste 42 Noroeste 0 1005.4 -0.4 36
2019-10-01 14:00:00 27.1 14 Oeste 34 Noroeste 0 1005.9 0 38
2019-10-01 13:00:00 27.9 8 Sur 29 Norte 0 1005.9 0.8 29
2019-10-01 12:00:00 27.5 8 Sudeste 16 Sur 0 1005.8 1.3 38
2019-10-01 11:00:00 26 10 Sur 17 Sur 0 1005.9 1.6 46
2019-10-01 10:00:00 24.9 8 Este 12 Este 0 1005.1 1.2 39
2019-10-01 09:00:00 22.5 4 Sur 10 Oeste 0 1004.5 0.6 41
2019-10-01 08:00:00 21.6 5 Noroeste 8 Este 0 1004.3 0.6 45
2019-10-01 07:00:00 21.5 4 Sudoeste 11 Sur 0 1003.9 -0.1 49
2019-10-01 06:00:00 21.1 5 Sudoeste 14 Sur 0 1003.9 -0.5 53
2019-10-01 05:00:00 21.5 8 Sur 12 Sudoeste 0 1003.7 -0.8 51
2019-10-01 04:00:00 21.2 5 Sudoeste 14 Sudoeste 0 1004 -0.7 43
2019-10-01 03:00:00 20 4 Nordeste 9 Nordeste 0 1004.4 -0.3 64
2019-10-01 02:00:00 20.3 3 Este 9 Nordeste 0 1004.5 -0.3 60
2019-10-01 01:00:00 20.1 4 Nordeste 5 Nordeste 0 1004.7 0.2 64
2019-10-01 00:00:00 21.1 2 Oeste 8 Norte 0 1004.7 0.4 49
2019-09-30 23:00:00 21.4 3 Sudoeste 6 Oeste 0 1004.8 0.3 60
2019-09-30 22:00:00 22.5 0 Calma 9 Sudoeste 0 1004.5 -0.1 69
2019-09-30 21:00:00 24.6 7 Sudoeste 14 Sudoeste 0 1004.3 -0.6 45
2019-09-30 20:00:00 25 8 Sudoeste 17 Sur 0 1004.5 -0.7 43
2019-09-30 19:00:00 26.4 11 Sur 18 Sur 0 1004.6 -0.9 33
2019-09-30 18:00:00 26 12 Sur 17 Sur 0 1004.9 -1.2 42
2019-09-30 17:00:00 26.3 11 Sur 16 Sur 0 1005.2 -1.6 39
2019-09-30 16:00:00 26.4 12 Sur 17 Sur 0 1005.5 -1.8 45
2019-09-30 15:00:00 26.6 9 Sur 14 Sur 0 1006.1 -1.6 34
2019-09-30 14:00:00 26.5 7 Sudeste 11 Sur 0 1006.8 -0.8 33
2019-09-30 13:00:00 25.4 8 Sudeste 10 Sudeste 0 1007.3 0.1 42
2019-09-30 12:00:00 22.5 6 Sur 11 Sur 0 1007.7 0.9 52
2019-09-30 11:00:00 20.1 5 Sudeste 8 Sudeste 0 1007.6 1 84
2019-09-30 10:00:00 19.1 4 Este 8 Sur 0 1007.2 0.6 86
2019-09-30 09:00:00 16.7 4 Sur 12 Sur 0 1006.8 0.3 99
2019-09-30 08:00:00 16.5 6 Sur 9 Sur 0 1006.6 0.2 98
2019-09-30 07:00:00 17.3 4 Sur 13 Sur 0 1006.6 -0.2 97
2019-09-30 06:00:00 18.1 9 Sur 13 Sur 0 1006.5 -0.8 93
2019-09-30 05:00:00 18 7 Sur 11 Sur 0 1006.4 -1.1 87
2019-09-30 04:00:00 18 2 Sudoeste 6 Oeste 0 1006.8 -0.7 79
2019-09-30 03:00:00 19.4 3 Sudeste 9 Sudoeste 0 1007.3 -0.4 75
2019-09-30 02:00:00 18.7 3 Noroeste 5 Noroeste 0 1007.5 -0.2 80
2019-09-30 01:00:00 18.8 3 Sudoeste 6 Sudoeste 0 1007.5 0 86
2019-09-30 00:00:00 19.3 3 Sur 9 Sur 0 1007.7 0.8 89
2019-09-29 23:00:00 19.4 3 Oeste 4 Oeste 0 1007.7 0.9 91
2019-09-29 22:00:00 20.3 3 Sudoeste 16 Sur 0 1007.5 0.5 86
2019-09-29 21:00:00 21.2 10 Sur 18 Sur 0 1006.9 -0.4 84
2019-09-29 20:00:00 21.7 12 Sur 19 Sur 0 1006.8 -1.1 83
2019-09-29 19:00:00 22.2 13 Sur 18 Sur 0 1007 -1.3 83
2019-09-29 18:00:00 23.4 9 Sudeste 15 Sudeste 0 1007.3 -1.5 77
2019-09-29 17:00:00 23.9 9 Sudeste 13 Sudeste 0 1007.9 -1.6 74
2019-09-29 16:00:00 24.2 9 Sur 16 Sur 0 1008.3 -1.3 72
2019-09-29 15:00:00 24.4 9 Sudeste 17 Sudeste 0 1008.8 -1 71
2019-09-29 14:00:00 24.3 8 Sudeste 15 Sudeste 0 1009.5 0.2 71
2019-09-29 13:00:00 23.4 8 Sudeste 15 Sur 0 1009.6 0.9 74
2019-09-29 12:00:00 22.9 8 Sur 19 Sur 0 1009.8 1.6 78
2019-09-29 11:00:00 22.3 8 Sur 17 Sur 0 1009.3 1.4 81
2019-09-29 10:00:00 21.1 10 Sur 19 Sudoeste 0 1008.7 1 86
2019-09-29 09:00:00 20.3 8 Sur 13 Sur 0 1008.2 0.5 89
2019-09-29 08:00:00 20.1 5 Sudoeste 17 Sur 0 1007.9 -0.2 88
2019-09-29 07:00:00 20.1 9 Sur 16 Sudoeste 0 1007.7 -0.8 88
2019-09-29 06:00:00 19.9 5 Sudoeste 9 Sur 0 1007.7 -1 90
2019-09-29 05:00:00 19.8 6 Sur 10 Sudeste 0 1008.1 -0.7 91
2019-09-29 04:00:00 19.9 5 Sudeste 13 Sur 0 1008.5 -0.4 90
2019-09-29 03:00:00 19.8 8 Sur 12 Sur 0 1008.7 -0.2 90
2019-09-29 02:00:00 19.8 8 Sur 17 Sur 0 1008.8 0.1 90
2019-09-29 01:00:00 19.4 8 Sur 14 Sur 0 1008.9 0.5 92
2019-09-29 00:00:00 18.9 10 Sur 18 Sur 0 1008.9 1.1 93
2019-09-28 23:00:00 18.7 13 Sur 22 Sur 0 1008.7 0.9 95
2019-09-28 22:00:00 18.6 12 Sur 21 Sur 0 1008.4 0.4 96
2019-09-28 21:00:00 18.6 12 Sur 18 Sur 0 1007.8 0 96
2019-09-28 20:00:00 18.9 10 Sur 18 Sur 0 1007.8 -0.4 94
2019-09-28 19:00:00 20.3 12 Sur 18 Sur 0 1008 -0.3 86
2019-09-28 18:00:00 21.4 11 Sur 17 Sur 0 1007.8 -1 80
2019-09-28 17:00:00 20.9 9 Sudeste 19 Sudeste 0 1008.2 -1.2 84
2019-09-28 16:00:00 21.2 11 Sur 21 Sur 0 1008.3 -1.4 83
2019-09-28 15:00:00 21.3 11 Sudeste 18 Sur 0 1008.8 -1 82
2019-09-28 14:00:00 20.9 9 Sudeste 15 Sur 0 1009.4 -0.1 84
2019-09-28 13:00:00 19.8 9 Sudeste 13 Sur 0 1009.7 0.8 90
2019-09-28 12:00:00 19.4 9 Sudeste 14 Sudeste 0 1009.8 1.4 91
2019-09-28 11:00:00 18.7 6 Sudeste 10 Sur 0 1009.5 1.7 96
2019-09-28 10:00:00 18.4 5 Sudeste 10 Sur 0 1008.9 1.5 96
2019-09-28 09:00:00 18.2 3 Este 5 Este 0 1008.4 1.1 93
2019-09-28 08:00:00 18 0 Calma 6 Sur 0 1007.8 0.4 93
2019-09-28 07:00:00 18.8 6 Sur 10 Sur 0 1007.4 -0.1 90
2019-09-28 06:00:00 19 4 Sudoeste 10 Sudoeste 0 1007.3 -0.3 89
2019-09-28 05:00:00 18.3 3 Sudoeste 5 Norte 0 1007.4 -0.6 92
2019-09-28 04:00:00 18.8 3 Norte 5 Norte 0 1007.5 -0.9 88
2019-09-28 03:00:00 19 3 Noroeste 10 Sur 0 1007.6 -0.8 82
2019-09-28 02:00:00 19.6 7 Sur 10 Sur 0 1008 -0.4 79
2019-09-28 01:00:00 19.6 0 Calma 6 Sur 0 1008.4 0.2 84
2019-09-28 00:00:00 19.9 0 Calma 5 Norte 0 1008.4 0.8 85
2019-09-27 23:00:00 19.9 3 Noroeste 8 Oeste 0 1008.4 1.1 84
2019-09-27 22:00:00 20.3 4 Sur 8 Sur 0 1008.2 1 87
2019-09-27 21:00:00 21.1 6 Sur 10 Sur 0 1007.6 0.4 85
2019-09-27 20:00:00 21.7 7 Sur 13 Sur 0 1007.3 -0.2 81
2019-09-27 19:00:00 22.4 11 Sur 19 Sur 0 1007.2 -0.6 77
2019-09-27 18:00:00 23.1 15 Sur 19 Sur 0 1007.2 -1.4 76
2019-09-27 17:00:00 23.7 10 Sudeste 16 Sur 0 1007.5 -1.7 73
2019-09-27 16:00:00 23.9 10 Sudeste 15 Sur 0 1007.8 -1.5 72
2019-09-27 15:00:00 23.4 8 Nordeste 17 Nordeste 0 1008.6 -1.1 73
2019-09-27 14:00:00 23.4 9 Sudeste 16 Sur 0 1009.2 -0.5 71
2019-09-27 13:00:00 22.6 10 Sudeste 16 Sudeste 0 1009.3 0 75
2019-09-27 12:00:00 23 5 Sudeste 13 Sudeste 0 1009.7 0.9 73
2019-09-27 11:00:00 21.5 7 Sudeste 13 Sudeste 0 1009.7 1.1 80
2019-09-27 10:00:00 20.7 5 Nordeste 9 Nordeste 0 1009.3 0.9 85
2019-09-27 09:00:00 20.2 4 Nordeste 7 Sudeste 0 1008.8 0.6 87
2019-09-27 08:00:00 20.2 3 Norte 12 Este 0 1008.6 0.3 88
2019-09-27 07:00:00 20.2 5 Nordeste 8 Nordeste 0 1008.4 -0.2 89
2019-09-27 06:00:00 19.9 2 Norte 10 Este 0 1008.2 -0.7 90
2019-09-27 05:00:00 19.7 3 Este 6 Nordeste 0 1008.3 -0.6 91
2019-09-27 04:00:00 19.2 3 Este 14 Nordeste 0 1008.6 -0.4 94
2019-09-27 03:00:00 18.8 2 Nordeste 10 Nordeste 0 1008.9 -0.1 96
2019-09-27 02:00:00 18.7 5 Norte 10 Este 0 1008.9 0.2 97
2019-09-27 01:00:00 18.9 5 Norte 10 Nordeste 0 1009 0.6 97
2019-09-27 00:00:00 19.1 3 Norte 5 Oeste 0 1009 1.3 95
2019-09-26 23:00:00 20 3 Oeste 6 Este 0 1008.7 1.1 94
2019-09-26 22:00:00 20.2 2 Noroeste 5 Norte 0 1008.4 1 94
2019-09-26 21:00:00 20.4 4 Norte 5 Norte 0 1007.7 0.3 93
2019-09-26 20:00:00 21.7 2 Sur 7 Sur 0 1007.6 -0.1 88
2019-09-26 19:00:00 22.7 5 Nordeste 12 Nordeste 0 1007.4 -0.6 87
2019-09-26 18:00:00 23.2 7 Nordeste 18 Este 0 1007.4 -0.9 85
2019-09-26 17:00:00 23.4 6 Nordeste 18 Norte 0 1007.7 -1 83
2019-09-26 16:00:00 23.6 10 Nordeste 21 Norte 0 1008 -1.3 83
2019-09-26 15:00:00 24 11 Norte 22 Nordeste 0 1008.3 -1 78
2019-09-26 14:00:00 23.8 14 Norte 22 Norte 0 1008.7 -0.3 78
2019-09-26 13:00:00 23.3 12 Norte 18 Nordeste 0 1009.3 1.1 78
2019-09-26 12:00:00 22.3 10 Norte 19 Norte 0 1009.3 1.8 83
2019-09-26 11:00:00 22 11 Norte 24 Norte 0 1009 2.2 83
2019-09-26 10:00:00 23 10 Norte 22 Noroeste 0 1008.2 2 64
2019-09-26 09:00:00 22.2 4 Norte 14 Noroeste 0 1007.5 1.6 56
2019-09-26 08:00:00 20.1 8 Noroeste 15 Noroeste 0 1006.8 1 58
2019-09-26 07:00:00 21.2 3 Sur 8 Oeste 0 1006.2 0.5 50
2019-09-26 06:00:00 21.9 5 Sudoeste 8 Oeste 0 1005.9 0.2 45
2019-09-26 05:00:00 21.6 4 Oeste 10 Sur 0 1005.8 -0.2 46
2019-09-26 04:00:00 22.7 8 Sudoeste 11 Sur 0 1005.7 -0.6 46
2019-09-26 03:00:00 22.7 5 Sur 10 Sur 0 1005.7 -0.5 46
2019-09-26 02:00:00 22.9 7 Sur 11 Oeste 0 1006 0.2 45
2019-09-26 01:00:00 23.7 8 Oeste 15 Oeste 0 1006.3 1 42
2019-09-26 00:00:00 24.5 5 Sur 14 Sur 0 1006.2 1.3 39
2019-09-25 23:00:00 26.1 8 Sudeste 30 Noroeste 0 1005.8 1.1 38
2019-09-25 22:00:00 26.7 10 Oeste 42 Oeste 0 1005.3 0.3 35
2019-09-25 21:00:00 26.8 12 Oeste 36 Noroeste 0 1004.9 -0.3 33
2019-09-25 20:00:00 26.2 15 Noroeste 32 Noroeste 0 1004.7 -0.5 30
2019-09-25 19:00:00 27.1 13 Noroeste 32 Noroeste 0 1005 -0.7 37
2019-09-25 18:00:00 28.4 13 Oeste 40 Noroeste 0 1005.2 -1.2 39
2019-09-25 17:00:00 29.5 17 Noroeste 37 Oeste 0 1005.2 -1.9 36
2019-09-25 16:00:00 29.5 17 Oeste 45 Noroeste 0 1005.7 -1.6 37
2019-09-25 15:00:00 29.9 10 Oeste 31 Oeste 0 1006.4 -1.2 34
2019-09-25 14:00:00 29.6 9 Oeste 31 Noroeste 0 1007.1 -0.2 46
2019-09-25 13:00:00 29 12 Noroeste 32 Noroeste 0 1007.3 0.3 45
2019-09-25 12:00:00 27.7 8 Nordeste 22 Nordeste 0 1007.6 1 56
2019-09-25 11:00:00 26.4 9 Sur 27 Noroeste 0 1007.3 1.1 62
2019-09-25 10:00:00 24.9 10 Sur 15 Sur 0 1007 0.8 66
2019-09-25 09:00:00 23.6 3 Nordeste 11 Sur 0 1006.6 0.7 68
2019-09-25 08:00:00 23.6 8 Sur 17 Noroeste 0 1006.2 0.3 67
2019-09-25 07:00:00 24.6 7 Sudeste 31 Noroeste 0 1006.2 -0.1 62
2019-09-25 06:00:00 25.4 14 Noroeste 36 Noroeste 0 1005.9 -0.5 56
2019-09-25 05:00:00 24.2 5 Sur 27 Oeste 0 1005.9 -0.7 54
2019-09-25 04:00:00 23.8 4 Noroeste 27 Oeste 0 1006.3 -0.6 54
2019-09-25 03:00:00 25.4 13 Noroeste 35 Oeste 0 1006.4 -0.8 51
2019-09-25 02:00:00 25.9 23 Noroeste 46 Oeste 0 1006.6 -0.4 48
2019-09-25 01:00:00 27.2 22 Noroeste 42 Noroeste 0 1006.9 0 38
2019-09-25 00:00:00 27.6 15 Noroeste 39 Noroeste 0 1007.2 0.7 32
2019-09-24 23:00:00 27 12 Oeste 26 Noroeste 0 1007 0.4 31
2019-09-24 22:00:00 24.8 4 Sur 12 Sudoeste 0 1006.9 0.2 35
2019-09-24 21:00:00 23.6 8 Sur 13 Sur 0 1006.5 -0.5 52
2019-09-24 20:00:00 24 4 Sur 9 Sur 0 1006.6 -0.8 58
2019-09-24 19:00:00 25.2 5 Sur 11 Sudeste 0 1006.7 -1.1 54
2019-09-24 18:00:00 25.9 6 Sudeste 12 Sudeste 0 1007 -1.5 54
2019-09-24 17:00:00 25.8 10 Sur 15 Sur 0 1007.4 -2 50
2019-09-24 16:00:00 26.7 6 Sur 13 Nordeste 0 1007.8 -2.2 48
2019-09-24 15:00:00 27.7 8 Nordeste 13 Nordeste 0 1008.5 -1.8 38
2019-09-24 14:00:00 26.3 8 Sudeste 12 Sur 0 1009.4 -0.9 44
2019-09-24 13:00:00 24 7 Nordeste 15 Nordeste 0 1010 0.1 51
2019-09-24 12:00:00 22.9 8 Nordeste 12 Norte 0 1010.3 1 71
2019-09-24 11:00:00 21.9 5 Nordeste 13 Nordeste 0 1010.3 1.3 76
2019-09-24 10:00:00 21.7 9 Nordeste 13 Nordeste 0 1009.9 0.8 74
2019-09-24 09:00:00 20.8 4 Sudoeste 8 Sudoeste 0 1009.3 0.6 67
2019-09-24 08:00:00 18.7 4 Sudoeste 7 Oeste 0 1009 0.3 70
2019-09-24 07:00:00 19.1 5 Sudoeste 7 Sudoeste 0 1009.1 0.1 65
2019-09-24 06:00:00 19.6 5 Sudoeste 9 Sudoeste 0 1008.7 -0.6 64
2019-09-24 05:00:00 20.1 8 Sudoeste 11 Sudoeste 0 1008.7 -0.7 65
2019-09-24 04:00:00 20.3 9 Sudoeste 11 Sudoeste 0 1009 -0.5 67
2019-09-24 03:00:00 20.6 8 Sudoeste 9 Sudoeste 0 1009.3 -0.4 62
2019-09-24 02:00:00 20.1 4 Sudoeste 9 Sudoeste 0 1009.4 -0.2 64
2019-09-24 01:00:00 20.2 4 Sur 6 Sudoeste 0 1009.5 0.3 62
2019-09-24 00:00:00 20.3 0 Calma 5 Sudoeste 0 1009.7 0.9 57
2019-09-23 23:00:00 20.5 2 Noroeste 4 Norte 0 1009.6 1 59
2019-09-23 22:00:00 21.3 2 Oeste 11 Sudoeste 0 1009.2 0.8 50
2019-09-23 21:00:00 22.5 6 Sudoeste 16 Sur 0 1008.8 0.6 55
2019-09-23 20:00:00 23.1 9 Sur 16 Sur 0 1008.6 0.4 59
2019-09-23 19:00:00 25.4 9 Sur 20 Sur 0 1008.4 0.2 55
2019-09-23 18:00:00 28.4 7 Norte 18 Norte 0 1008.2 -0.2 28
2019-09-23 17:00:00 28.8 10 Norte 22 Norte 0 1008.2 -0.3 24
2019-09-23 16:00:00 29 12 Norte 23 Norte 0 1008.2 -1 30
2019-09-23 15:00:00 28.8 11 Norte 23 Nordeste 0 1008.4 -1.1 32
2019-09-23 14:00:00 28.6 10 Nordeste 19 Norte 0 1008.5 -0.9 36
2019-09-23 13:00:00 27.9 9 Sudeste 14 Sudeste 0 1009.2 0.4 37
2019-09-23 12:00:00 25.9 10 Sudeste 16 Sudeste 0 1009.5 1.3 43
2019-09-23 11:00:00 25.8 8 Sudeste 17 Nordeste 0 1009.4 1.4 44
2019-09-23 10:00:00 24.5 8 Sur 26 Noroeste 0 1008.8 1.2 48
2019-09-23 09:00:00 23.1 10 Noroeste 27 Noroeste 0 1008.2 0.8 48
2019-09-23 08:00:00 20.6 6 Sudoeste 17 Noroeste 0 1008 0.6 61
2019-09-23 07:00:00 19.6 5 Sudoeste 18 Sur 0 1007.6 0.3 76
2019-09-23 06:00:00 20.5 6 Sudoeste 30 Noroeste 0 1007.4 -0.5 65
2019-09-23 05:00:00 20.8 8 Noroeste 19 Noroeste 0 1007.4 -0.5 65
2019-09-23 04:00:00 20.5 9 Oeste 26 Noroeste 0 1007.3 -0.8 73
2019-09-23 03:00:00 21.3 15 Noroeste 36 Noroeste 0 1007.9 -0.4 62
2019-09-23 02:00:00 21.2 18 Noroeste 34 Noroeste 0 1007.9 -0.4 63
2019-09-23 01:00:00 20.9 14 Noroeste 29 Oeste 0 1008.1 0.3 68
2019-09-23 00:00:00 21.1 14 Noroeste 30 Oeste 0 1008.3 1.4 68
2019-09-22 23:00:00 20.6 8 Oeste 17 Noroeste 0 1008.3 1.5 72
2019-09-22 22:00:00 20.8 6 Sur 19 Noroeste 0 1007.8 1.1 72
2019-09-22 21:00:00 20.8 6 Oeste 22 Oeste 0 1006.9 0.2 68
2019-09-22 20:00:00 21.7 10 Oeste 29 Oeste 0 1006.8 0.1 59
2019-09-22 19:00:00 23.2 9 Oeste 27 Oeste 0 1006.7 0.1 52
2019-09-22 18:00:00 24.6 8 Sudoeste 23 Sur 0 1006.7 0.1 43
2019-09-22 17:00:00 24.6 8 Oeste 27 Noroeste 0 1006.7 -0.1 48
2019-09-22 16:00:00 24.8 12 Oeste 33 Sudoeste 0 1006.6 0.1 59
2019-09-22 15:00:00 25.1 10 Oeste 32 Noroeste 0 1006.6 0 61
2019-09-22 14:00:00 23.4 10 Oeste 32 Oeste 0 1006.8 0.5 77
2019-09-22 13:00:00 24.7 8 Oeste 28 Oeste 0 1006.5 0.5 68
2019-09-22 12:00:00 24.6 10 Sudoeste 29 Oeste 0 1006.6 1.2 64
2019-09-22 11:00:00 24.8 8 Oeste 27 Oeste 0 1006.3 1.3 63
2019-09-22 10:00:00 23.6 12 Oeste 24 Oeste 0 1006 1.3 68
2019-09-22 09:00:00 21.7 8 Oeste 21 Sudoeste 0 1005.4 1 76
2019-09-22 08:00:00 20.8 8 Sudoeste 22 Sudoeste 0 1005 0.7 80
2019-09-22 07:00:00 20.4 4 Oeste 9 Oeste 0 1004.7 0.1 81
2019-09-22 06:00:00 20.9 5 Oeste 14 Sudoeste 0 1004.4 -0.3 80
2019-09-22 05:00:00 21.4 8 Oeste 19 Oeste 0 1004.3 -0.4 79
2019-09-22 04:00:00 21.1 5 Oeste 12 Sudoeste 0 1004.6 -0.2 79
2019-09-22 03:00:00 21.8 5 Sudoeste 18 Oeste 0 1004.7 -0.3 68
2019-09-22 02:00:00 22.2 6 Oeste 27 Noroeste 0 1004.7 -0.2 64
2019-09-22 01:00:00 22.3 9 Noroeste 20 Noroeste 0 1004.8 0.3 62
2019-09-22 00:00:00 20.9 4 Oeste 9 Oeste 0 1005 1 67
2019-09-21 23:00:00 21 2 Norte 9 Sur 0 1004.9 1.2 71
2019-09-21 22:00:00 21.3 3 Noroeste 13 Oeste 0 1004.5 0.9 75
2019-09-21 21:00:00 22 7 Oeste 21 Oeste 0 1004 0.5 72
2019-09-21 20:00:00 23.1 6 Oeste 18 Noroeste 0 1003.7 0.2 68
2019-09-21 19:00:00 24.1 6 Sudeste 13 Sur 0 1003.6 -0.3 63
2019-09-21 18:00:00 23.8 8 Sur 12 Sur 0 1003.5 -0.4 62
2019-09-21 17:00:00 24.7 9 Sudeste 13 Sudeste 0 1003.5 -0.9 58
2019-09-21 16:00:00 25 7 Sur 13 Sudeste 0 1003.9 -0.8 57
2019-09-21 15:00:00 25.3 7 Este 16 Nordeste 0 1003.9 -1.1 61
2019-09-21 14:00:00 24.5 6 Este 15 Este 0 1004.4 -0.5 63
2019-09-21 13:00:00 24.7 5 Norte 13 Noroeste 0 1004.7 0.2 63
2019-09-21 12:00:00 22.8 4 Este 9 Este 0 1005 1.4 68
2019-09-21 11:00:00 22.5 6 Sur 12 Sur 0 1004.9 1.8 63
2019-09-21 10:00:00 20.5 3 Norte 5 Oeste 0 1004.5 1.3 85
2019-09-21 09:00:00 19.7 0 Calma 6 Nordeste 0 1003.6 0.4 90
2019-09-21 08:00:00 19.4 3 Norte 6 Oeste 0 1003.1 0 89
2019-09-21 07:00:00 19.6 3 Sudeste 6 Oeste 0 1003.2 -0.1 91
2019-09-21 06:00:00 19.7 2 Norte 6 Sur 0 1003.2 -0.5 91
2019-09-21 05:00:00 19.7 3 Noroeste 7 Sudoeste 0 1003.1 -1.1 92
2019-09-21 04:00:00 19.9 2 Noroeste 7 Oeste 0 1003.3 -1.1 90
2019-09-21 03:00:00 20.2 4 Sudoeste 7 Sudoeste 0 1003.7 -1.1 90
2019-09-21 02:00:00 20.5 3 Oeste 5 Oeste 0 1004.2 -0.8 91
2019-09-21 01:00:00 21.1 3 Sudoeste 5 Sudoeste 0 1004.4 -0.2 90
2019-09-21 00:00:00 21.3 0 Calma 4 Noroeste 0 1004.8 0.9 89
2019-09-20 23:00:00 21.2 0 Calma 4 Norte 0 1005 0.9 89
2019-09-20 22:00:00 21.7 3 Sudoeste 7 Sudoeste 0 1004.6 1 87
2019-09-20 21:00:00 22.1 4 Nordeste 8 Nordeste 0 1003.9 0.2 84
2019-09-20 20:00:00 22.3 7 Noroeste 20 Noroeste 0 1004.1 0.1 85
2019-09-20 19:00:00 22.9 4 Nordeste 10 Norte 0 1003.6 -0.5 85
2019-09-20 18:00:00 23.6 6 Nordeste 12 Norte 0 1003.7 -1 82
2019-09-20 17:00:00 24.9 3 Sudeste 11 Nordeste 0 1004 -1 76
2019-09-20 16:00:00 23.9 3 Sudeste 8 Sudeste 0 1004.1 -1.2 78
2019-09-20 15:00:00 23.7 6 Sudeste 10 Sudeste 0 1004.7 -0.9 79
2019-09-20 14:00:00 23.9 6 Sudeste 11 Sur 0 1005 -0.6 76
2019-09-20 13:00:00 23.7 7 Sur 13 Sudeste 0 1005.3 0.1 77
2019-09-20 12:00:00 23.3 8 Sudeste 15 Este 0 1005.6 1 78
2019-09-20 11:00:00 23.3 6 Este 12 Este 0 1005.6 1.3 80
2019-09-20 10:00:00 21.7 5 Sur 10 Oeste 0 1005.2 1 83
2019-09-20 09:00:00 20.1 4 Sudoeste 9 Oeste 0 1004.6 0.2 89
2019-09-20 08:00:00 19.7 5 Sudoeste 9 Sudoeste 0 1004.3 -0.5 92
2019-09-20 07:00:00 19.6 5 Sudoeste 8 Sur 0 1004.2 -1 92
2019-09-20 06:00:00 19.9 5 Sur 7 Sur 0 1004.4 -1.3 91
2019-09-20 05:00:00 20.2 4 Sudoeste 10 Sur 0 1004.8 -0.9 90
2019-09-20 04:00:00 20.5 7 Sur 9 Sur 0 1005.2 -0.6 87
2019-09-20 03:00:00 20.7 3 Sur 5 Sur 0 1005.7 -0.1 87
2019-09-20 02:00:00 21 4 Sur 9 Sudeste 0 1005.7 0 88
2019-09-20 01:00:00 21.2 2 Sur 8 Sudeste 0 1005.8 0.7 90
2019-09-20 00:00:00 21.5 6 Sur 12 Sur 0 1005.8 1 84
2019-09-19 23:00:00 21.6 6 Sudoeste 12 Sur 0 1005.7 1.1 82
2019-09-19 22:00:00 21.7 8 Sur 12 Sur 0 1005.1 0.3 81
2019-09-19 21:00:00 22.1 7 Sur 12 Sur 0 1004.8 -0.1 76
2019-09-19 20:00:00 22.8 7 Sur 14 Sur 0 1004.6 -0.3 70
2019-09-19 19:00:00 23.5 10 Sur 17 Sudeste 0 1004.8 -0.3 68
2019-09-19 18:00:00 24.3 10 Sur 20 Sur 0 1004.9 -0.7 64
2019-09-19 17:00:00 25.7 10 Sudeste 18 Sur 0 1004.9 -1 57
2019-09-19 16:00:00 26.2 9 Sudeste 15 Sur 0 1005.1 -1.4 51
2019-09-19 15:00:00 25.9 10 Sur 15 Sur 0 1005.6 -1.2 53
2019-09-19 14:00:00 25.9 6 Este 13 Nordeste 0 1005.9 -0.7 53
2019-09-19 13:00:00 24.9 7 Este 14 Este 0 1006.5 0.1 60
2019-09-19 12:00:00 23.3 7 Nordeste 12 Nordeste 0 1006.8 0.8 64
2019-09-19 11:00:00 23.9 5 Este 12 Sudeste 0 1006.6 1 57
2019-09-19 10:00:00 22.8 5 Sur 9 Sur 0 1006.4 0.9 64
2019-09-19 09:00:00 20.3 0 Calma 8 Sudoeste 0 1006 0.7 76
2019-09-19 08:00:00 18.6 3 Sudoeste 5 Oeste 0 1005.6 0.4 76
2019-09-19 07:00:00 19.2 4 Sudoeste 9 Oeste 0 1005.5 0.2 75
2019-09-19 06:00:00 19.3 6 Oeste 9 Oeste 0 1005.3 -0.2 78
2019-09-19 05:00:00 20 7 Sudoeste 11 Sudoeste 0 1005.2 -0.5 78
2019-09-19 04:00:00 20.2 5 Sur 7 Sur 0 1005.3 -0.6 65
2019-09-19 03:00:00 20.3 2 Nordeste 4 Nordeste 0 1005.5 -0.6 62
2019-09-19 02:00:00 20.3 0 Calma 6 Oeste 0 1005.7 -0.1 63
2019-09-19 01:00:00 20 3 Noroeste 6 Oeste 0 1005.9 0.3 67
2019-09-19 00:00:00 20.4 3 Norte 6 Este 0 1006.1 0.8 66
2019-09-18 23:00:00 21.1 0 Calma 6 Sur 0 1005.8 0.9 58
2019-09-18 22:00:00 22 2 Este 8 Sur 0 1005.6 0.8 57
2019-09-18 21:00:00 23.3 2 Sur 11 Sudoeste 0 1005.3 0.6 48
2019-09-18 20:00:00 25.7 5 Sudoeste 9 Noroeste 0 1004.9 -0.1 44
2019-09-18 19:00:00 27.8 5 Noroeste 13 Noroeste 0 1004.8 -0.5 45
2019-09-18 18:00:00 28.7 4 Sudoeste 20 Oeste 0 1004.7 -1.1 40
2019-09-18 17:00:00 28.7 7 Oeste 21 Oeste 0 1005 -1 44
2019-09-18 16:00:00 28.2 10 Sudoeste 22 Oeste 0 1005.3 -0.8 46
2019-09-18 15:00:00 27.7 10 Sudoeste 21 Sudoeste 0 1005.8 -0.6 51
2019-09-18 14:00:00 27.5 9 Sudoeste 22 Sur 0 1006 -0.3 56
2019-09-18 13:00:00 26.4 8 Noroeste 17 Oeste 0 1006.1 0 62
2019-09-18 12:00:00 25.8 8 Noroeste 17 Noroeste 0 1006.4 0.7 66
2019-09-18 11:00:00 24.3 6 Sudoeste 16 Sudoeste 0 1006.3 1.2 70
2019-09-18 10:00:00 22.3 3 Oeste 8 Oeste 0 1006.1 1.4 82
2019-09-18 09:00:00 21.1 0 Calma 4 Nordeste 0 1005.7 1.1 95
2019-09-18 08:00:00 20.8 0 Calma 4 Norte 0 1005.1 0.2 95
2019-09-18 07:00:00 20.7 4 Norte 8 Este 0 1004.7 -0.4 95
2019-09-18 06:00:00 21 3 Sudoeste 4 Sudoeste 0 1004.6 -0.6 95
2019-09-18 05:00:00 20.9 0 Calma 5 Sudoeste 0 1004.9 -0.6 95
2019-09-18 04:00:00 20.4 4 Sudoeste 8 Sur 0 1005.1 -0.4 97
2019-09-18 03:00:00 20.9 5 Sur 9 Sur 0 1005.2 -0.1 97
2019-09-18 02:00:00 21.6 4 Sudoeste 8 Sudoeste 0 1005.5 0.3 96
2019-09-18 01:00:00 22 5 Sur 10 Sudoeste 0 1005.5 0.9 95
2019-09-18 00:00:00 22.1 8 Sur 15 Sur 0 1005.3 1 94
2019-09-17 23:00:00 22.1 7 Sudoeste 14 Sur 0 1005.2 0.8 93
2019-09-17 22:00:00 22.4 8 Sur 13 Sur 0 1004.6 0 92
2019-09-17 21:00:00 22.5 6 Sur 11 Este 0 1004.3 -0.6 91
2019-09-15 18:00:00 26.1 5 Este 14 Nordeste 0 1007 -0.8 60
2019-09-15 17:00:00 26.1 9 Nordeste 19 Norte 0 1007.2 -1 63
2019-09-15 16:00:00 25.8 12 Nordeste 26 Nordeste 0 1007.5 -0.6 67
2019-09-15 15:00:00 25.8 15 Nordeste 26 Norte 0 1007.8 -0.3 69
2019-09-15 14:00:00 26.4 10 Norte 22 Norte 0 1008.2 0.2 68
2019-09-15 13:00:00 25.9 10 Nordeste 16 Nordeste 0 1008.1 0.4 72
2019-09-15 12:00:00 25.2 8 Nordeste 16 Nordeste 0 1008.1 0.7 76
2019-09-15 11:00:00 23.2 8 Nordeste 12 Nordeste 0 1008 0.7 87
2019-09-15 10:00:00 21 3 Norte 7 Norte 0 1007.7 0.7 98
2019-09-15 09:00:00 21.3 4 Este 8 Sur 0 1007.4 0.5 97
2019-09-15 08:00:00 21.8 3 Sudoeste 8 Sur 0 1007.3 0.3 99
2019-09-15 07:00:00 21.7 5 Sur 10 Sur 0 1007 -0.1 99
2019-09-15 06:00:00 21.7 5 Sur 10 Sur 0 1006.9 -0.5 98
2019-09-15 05:00:00 21.6 4 Sur 12 Sur 0 1007 -0.7 98
2019-09-15 04:00:00 21.7 2 Sudeste 8 Sudoeste 0 1007.1 -0.9 98
2019-09-15 03:00:00 21.6 4 Sur 6 Sur 0 1007.4 -0.9 98
2019-09-15 02:00:00 21.5 4 Sur 12 Sur 0 1007.7 -0.4 97
2019-09-15 01:00:00 21.8 8 Sur 18 Sudeste 0 1008 0.3 96
2019-09-15 00:00:00 22.1 6 Sur 15 Sur 0 1008.3 1.2 94